Metcalf, Georgia
Current Conditions -  °F | °C
As of 11:15 PM on Tuesday 25 Nov 2014 (Local Time) from KTVI Reporting Station
Heavy Rain Heavy Rain  
Wind Chill: 44°   Ceiling: 600
Heat Index: 48°   Visibility: 7mi
Dew Point: 48°   Wind: 10mph
Humidity: 100%   Direction: 350°N
Pressure: 30.03"   Gusts: 16mph
Location:  30.7834°N, 84.0162°W
Report Text: KTVI 260415Z AUTO 35009G14KT 7SM +RA OVC006 09/09 A3003 RMK AO2
Loading
Personal Weather Stations






























Interactive Weather Map New forecast layout! Learn more

10-Day Weather Forecast

Advertisements
Track Severe Weather on mobile